Portada
METAR-TAF:

METAR-TAF

Aeroports :

Estocolm-Arlanda, Suècia

latitud: 59-39N, longitud: 017-57E, altitud: 38 m

Observació

L'informe es va fer fa 16 minuts, a les 05:50 UTC
Vent 2 kt amb direcció variable
Temperatura 0°C
Humitat 80%
Pressió 1034 hPa
Visibilitat 10 km o més
Cel ennuvolat a una alçada de 1500 ft

METAR: ESSA 200550Z VRB02KT 9999 BKN015 M00/M03 Q1034 R01L/09//95 R08/09//95 R01R/09//95 NOSIG

Hora: 07:06 (06:06 UTC)

Pronòstic

L'informe es va fer fa 36 minuts, a les 05:30 UTC
Pronòstic vàlid del 20 a les 06 UTC al 21 a les 06 UTC
Vent 2 kt amb direcció variable
Visibilitat 10 km o més
Cel ennuvolat a una alçada de 1600 ft
Probabilitat 40%
l' 21 a les 01 UTC al 21 a les 06 UTC
Cel ennuvolat a una alçada de 800 ft

TAF: ESSA 200530Z 2006/2106 VRB02KT 9999 BKN016 PROB40 2101/2106 BKN008

Observacions i pronòstics meteorològics de més de 4000 aeroports (METAR i TAF).

Les estacions disponibles són els punts grocs i vermells al mapa.

Posi el ratolí al punt desitjat per veure el nom de l'estació.

Feu clic per veure les observacions i els pronòstics meteorològics.

Per canviar el mapa: feu clic els botons verds amb una creu de color negre per apropar; al botó verd amb un guió per allunyar la imatge; o en les fletxes verdes per a mapes adjacents.


METAR-TAF: